Time;durP1;ratioP1;P1;durP2;ratioP2;P2;SDS_P1;SDS_P2;PMS_P1;PMS_P2;Temp;Humidity;BMP_temperature;BMP_pressure;BME280_temperature;BME280_humidity;BME280_pressure;Samples;Min_cycle;Max_cycle;Signal;HPM_P1;HPM_P2
2023/05/29 00:00:13;;;;;;;4.10;1.80;;;;;;;;;;107594;283;39776;-41
2023/05/29 00:03:09;;;;;;;4.30;1.80;;;;;;;;;;107631;286;42277;-39
2023/05/29 00:05:44;;;;;;;4.20;1.80;;;;;;;;;;107632;282;42892;-39
2023/05/29 00:08:19;;;;;;;4.30;2.10;;;;;;;;;;107637;286;42159;-40
2023/05/29 00:10:55;;;;;;;4.70;1.90;;;;;;;;;;107597;286;38880;-40
2023/05/29 00:13:29;;;;;;;4.10;1.80;;;;;;;;;;107644;283;39822;-40
2023/05/29 00:16:05;;;;;;;3.80;1.70;;;;;;;;;;107635;286;43013;-39
2023/05/29 00:18:45;;;;;;;4.20;1.90;;;;;;;;;;107650;286;42239;-39
2023/05/29 00:21:21;;;;;;;4.30;2.00;;;;;;;;;;107626;286;38887;-39
2023/05/29 00:23:57;;;;;;;4.60;2.00;;;;;;;;;;107658;286;39670;-39
2023/05/29 00:26:34;;;;;;;4.60;1.80;;;;;;;;;;107674;286;42915;-39
2023/05/29 00:29:09;;;;;;;4.20;2.10;;;;;;;;;;107707;283;41930;-39
2023/05/29 00:31:45;;;;;;;4.20;1.90;;;;;;;;;;107418;284;45021;-40
2023/05/29 00:34:22;;;;;;;4.50;1.90;;;;;;;;;;107458;287;39672;-38
2023/05/29 00:36:57;;;;;;;4.20;2.10;;;;;;;;;;107464;284;42914;-39
2023/05/29 00:39:37;;;;;;;4.00;1.80;;;;;;;;;;107408;285;42295;-38
2023/05/29 00:42:13;;;;;;;4.00;2.00;;;;;;;;;;107430;285;46110;-39
2023/05/29 00:44:52;;;;;;;4.20;1.90;;;;;;;;;;107447;284;39790;-39
2023/05/29 00:47:26;;;;;;;4.00;1.80;;;;;;;;;;107423;284;43382;-39
2023/05/29 00:50:04;;;;;;;4.00;2.00;;;;;;;;;;107387;286;42214;-39
2023/05/29 00:52:40;;;;;;;4.90;2.00;;;;;;;;;;107440;285;38892;-39
2023/05/29 00:55:18;;;;;;;4.30;2.00;;;;;;;;;;107407;284;39736;-39
2023/05/29 00:57:56;;;;;;;4.20;1.80;;;;;;;;;;107417;286;42927;-39
2023/05/29 01:00:38;;;;;;;4.00;1.80;;;;;;;;;;107426;284;42051;-39
2023/05/29 01:03:18;;;;;;;3.90;2.00;;;;;;;;;;107481;286;38911;-39
2023/05/29 01:05:55;;;;;;;4.50;2.10;;;;;;;;;;107431;292;39673;-39
2023/05/29 01:08:31;;;;;;;4.10;1.90;;;;;;;;;;107454;286;43165;-39
2023/05/29 01:11:14;;;;;;;3.70;1.70;;;;;;;;;;107424;286;44375;-39
2023/05/29 01:13:50;;;;;;;4.60;1.90;;;;;;;;;;107485;287;38979;-39
2023/05/29 01:16:34;;;;;;;4.00;1.90;;;;;;;;;;107040;287;532144;-39
2023/05/29 01:19:33;;;;;;;4.30;2.00;;;;;;;;;;107453;286;44092;-39
2023/05/29 01:22:18;;;;;;;4.40;1.90;;;;;;;;;;107420;285;42660;-39
2023/05/29 01:24:59;;;;;;;4.10;2.20;;;;;;;;;;107483;287;38758;-39
2023/05/29 01:27:36;;;;;;;4.10;2.00;;;;;;;;;;107481;287;39842;-40
2023/05/29 01:30:14;;;;;;;4.00;2.10;;;;;;;;;;107539;285;43156;-39
2023/05/29 01:32:54;;;;;;;4.70;2.10;;;;;;;;;;107613;286;42130;-39
2023/05/29 01:35:33;;;;;;;4.30;1.70;;;;;;;;;;107668;285;40032;-39
2023/05/29 01:38:08;;;;;;;4.10;1.90;;;;;;;;;;107625;286;39762;-41
2023/05/29 01:40:44;;;;;;;4.10;2.00;;;;;;;;;;107620;290;42988;-39
2023/05/29 01:43:20;;;;;;;4.00;1.80;;;;;;;;;;107727;286;49271;-40
2023/05/29 01:45:55;;;;;;;4.50;2.00;;;;;;;;;;107610;283;38813;-40
2023/05/29 01:48:31;;;;;;;3.90;1.90;;;;;;;;;;107466;288;39691;-39
2023/05/29 01:51:06;;;;;;;4.10;2.00;;;;;;;;;;107617;283;42922;-39
2023/05/29 01:53:44;;;;;;;3.90;1.80;;;;;;;;;;107667;283;42172;-40
2023/05/29 01:56:19;;;;;;;4.00;1.90;;;;;;;;;;107627;290;38799;-40
2023/05/29 01:59:00;;;;;;;4.20;1.90;;;;;;;;;;107639;286;42369;-40
2023/05/29 02:01:34;;;;;;;3.80;2.10;;;;;;;;;;107477;286;196108;-40
2023/05/29 02:04:09;;;;;;;4.00;1.90;;;;;;;;;;107616;286;42262;-40
2023/05/29 02:06:45;;;;;;;4.00;2.00;;;;;;;;;;107620;286;38974;-40
2023/05/29 02:09:23;;;;;;;3.70;1.80;;;;;;;;;;107637;283;40877;-40
2023/05/29 02:11:57;;;;;;;4.00;1.90;;;;;;;;;;107570;286;42881;-40
2023/05/29 02:14:32;;;;;;;4.30;2.00;;;;;;;;;;107626;286;42129;-40
2023/05/29 02:17:09;;;;;;;4.70;2.10;;;;;;;;;;107637;286;38749;-40
2023/05/29 02:19:47;;;;;;;4.20;2.00;;;;;;;;;;107655;283;39773;-40
2023/05/29 02:22:29;;;;;;;4.10;1.90;;;;;;;;;;107584;286;42904;-40
2023/05/29 02:25:06;;;;;;;3.90;1.90;;;;;;;;;;107638;286;42148;-40
2023/05/29 02:27:42;;;;;;;4.50;2.00;;;;;;;;;;107644;286;38797;-40
2023/05/29 02:30:16;;;;;;;4.70;2.10;;;;;;;;;;107640;285;39832;-40
2023/05/29 02:32:52;;;;;;;4.10;1.80;;;;;;;;;;107621;283;44264;-40
2023/05/29 02:35:28;;;;;;;3.90;1.80;;;;;;;;;;107639;285;42145;-40
2023/05/29 02:38:07;;;;;;;3.90;2.00;;;;;;;;;;107636;282;38531;-40
2023/05/29 02:40:44;;;;;;;3.80;1.90;;;;;;;;;;107612;286;39873;-40
2023/05/29 02:43:18;;;;;;;3.70;1.80;;;;;;;;;;107586;283;43178;-40
2023/05/29 02:45:53;;;;;;;3.70;1.80;;;;;;;;;;107653;283;42509;-40
2023/05/29 02:48:27;;;;;;;4.00;2.00;;;;;;;;;;107632;283;39305;-40
2023/05/29 02:51:04;;;;;;;4.10;2.00;;;;;;;;;;107636;286;39847;-40
2023/05/29 02:53:38;;;;;;;4.00;2.00;;;;;;;;;;107605;283;43042;-40
2023/05/29 02:56:16;;;;;;;4.30;2.10;;;;;;;;;;107618;286;42710;-40
2023/05/29 02:58:52;;;;;;;3.70;2.00;;;;;;;;;;107623;285;38962;-40
2023/05/29 03:01:27;;;;;;;3.90;2.00;;;;;;;;;;107615;283;39746;-41
2023/05/29 03:04:02;;;;;;;4.10;2.10;;;;;;;;;;107574;285;42878;-40
2023/05/29 03:06:38;;;;;;;4.00;1.90;;;;;;;;;;107626;285;43312;-40
2023/05/29 03:09:13;;;;;;;3.90;1.90;;;;;;;;;;107613;286;39929;-40
2023/05/29 03:11:53;;;;;;;4.10;2.10;;;;;;;;;;107646;286;40884;-40
2023/05/29 03:14:28;;;;;;;4.20;1.90;;;;;;;;;;107595;286;44041;-40
2023/05/29 03:17:06;;;;;;;3.80;1.80;;;;;;;;;;107621;282;42261;-40
2023/05/29 03:19:41;;;;;;;3.90;2.00;;;;;;;;;;107666;286;39910;-40
2023/05/29 03:22:18;;;;;;;4.60;2.00;;;;;;;;;;107641;285;40863;-40
2023/05/29 03:24:55;;;;;;;4.20;2.00;;;;;;;;;;107576;286;44184;-40
2023/05/29 03:27:30;;;;;;;4.10;2.00;;;;;;;;;;107624;278;42298;-40
2023/05/29 03:30:04;;;;;;;4.60;2.10;;;;;;;;;;107648;282;40232;-40
2023/05/29 03:32:42;;;;;;;4.30;2.20;;;;;;;;;;107642;286;39504;-40
2023/05/29 03:35:16;;;;;;;4.70;2.30;;;;;;;;;;107580;283;42915;-40
2023/05/29 03:37:54;;;;;;;4.70;2.00;;;;;;;;;;107652;286;42203;-40
2023/05/29 03:40:28;;;;;;;4.30;2.20;;;;;;;;;;107662;286;38963;-40
2023/05/29 03:43:03;;;;;;;4.10;2.10;;;;;;;;;;107651;286;39730;-41
2023/05/29 03:45:37;;;;;;;4.20;2.20;;;;;;;;;;107601;283;43457;-40
2023/05/29 03:48:11;;;;;;;3.90;2.00;;;;;;;;;;107651;285;42249;-40
2023/05/29 03:50:46;;;;;;;4.30;2.20;;;;;;;;;;107520;286;39014;-40
2023/05/29 03:53:20;;;;;;;4.10;2.00;;;;;;;;;;107642;282;40846;-40
2023/05/29 03:55:55;;;;;;;4.20;2.10;;;;;;;;;;107614;287;49661;-40
2023/05/29 03:58:32;;;;;;;4.20;2.10;;;;;;;;;;107640;285;42147;-40
2023/05/29 04:01:06;;;;;;;4.00;1.90;;;;;;;;;;107530;285;175564;-41
2023/05/29 04:03:40;;;;;;;4.30;2.10;;;;;;;;;;107649;285;39782;-40
2023/05/29 04:06:17;;;;;;;4.30;2.00;;;;;;;;;;107704;283;49719;-40
2023/05/29 04:08:51;;;;;;;4.10;2.00;;;;;;;;;;107637;283;42291;-40
2023/05/29 04:11:26;;;;;;;5.10;2.20;;;;;;;;;;107628;285;38845;-40
2023/05/29 04:14:21;;;;;;;4.60;2.00;;;;;;;;;;107555;286;40719;-40
2023/05/29 04:17:16;;;;;;;5.60;2.50;;;;;;;;;;107529;286;196058;-40
2023/05/29 04:19:51;;;;;;;5.60;2.10;;;;;;;;;;107622;286;42506;-40
2023/05/29 04:22:29;;;;;;;5.80;2.00;;;;;;;;;;107476;286;38629;-41
2023/05/29 04:25:04;;;;;;;4.50;2.20;;;;;;;;;;107602;286;39499;-40
2023/05/29 04:27:38;;;;;;;5.10;2.40;;;;;;;;;;107640;286;42922;-40
2023/05/29 04:30:13;;;;;;;5.30;2.30;;;;;;;;;;107633;286;42301;-40
2023/05/29 04:32:49;;;;;;;6.00;2.60;;;;;;;;;;107655;286;38762;-40
2023/05/29 04:35:28;;;;;;;5.80;2.30;;;;;;;;;;107637;286;41169;-40
2023/05/29 04:38:01;;;;;;;5.50;2.30;;;;;;;;;;107646;286;42939;-41
2023/05/29 04:40:40;;;;;;;5.10;2.10;;;;;;;;;;107631;283;42143;-40
2023/05/29 04:43:15;;;;;;;5.80;2.40;;;;;;;;;;107646;286;39925;-40
2023/05/29 04:45:52;;;;;;;4.70;2.30;;;;;;;;;;107602;286;39668;-40
2023/05/29 04:48:26;;;;;;;5.80;2.40;;;;;;;;;;107662;286;42709;-40
2023/05/29 04:51:01;;;;;;;5.40;2.60;;;;;;;;;;107704;283;42266;-40
2023/05/29 04:53:36;;;;;;;5.20;2.60;;;;;;;;;;107709;286;38847;-40
2023/05/29 04:56:11;;;;;;;6.80;2.80;;;;;;;;;;107626;283;39750;-40
2023/05/29 04:58:47;;;;;;;6.40;2.90;;;;;;;;;;107664;283;44040;-40
2023/05/29 05:01:23;;;;;;;7.30;3.10;;;;;;;;;;107683;283;42179;-40
2023/05/29 05:03:58;;;;;;;5.30;2.80;;;;;;;;;;107658;283;39926;-40
2023/05/29 05:06:35;;;;;;;5.70;2.90;;;;;;;;;;107610;286;40922;-40
2023/05/29 05:09:10;;;;;;;6.10;3.30;;;;;;;;;;107675;283;44077;-41
2023/05/29 05:11:49;;;;;;;6.60;3.10;;;;;;;;;;107691;283;42144;-40
2023/05/29 05:14:26;;;;;;;6.40;3.00;;;;;;;;;;107676;283;38844;-40
2023/05/29 05:17:03;;;;;;;6.70;3.30;;;;;;;;;;107642;283;40955;-40
2023/05/29 05:19:38;;;;;;;6.90;3.60;;;;;;;;;;107656;286;43330;-40
2023/05/29 05:22:14;;;;;;;5.90;3.20;;;;;;;;;;107564;286;195281;-40
2023/05/29 05:24:52;;;;;;;7.00;4.10;;;;;;;;;;107700;287;38882;-40
2023/05/29 05:27:27;;;;;;;7.90;3.90;;;;;;;;;;107630;286;39855;-41
2023/05/29 05:30:06;;;;;;;8.10;4.00;;;;;;;;;;107650;286;42987;-40
2023/05/29 05:32:41;;;;;;;8.20;3.90;;;;;;;;;;107679;283;42138;-40
2023/05/29 05:35:19;;;;;;;6.60;3.60;;;;;;;;;;107699;286;38858;-40
2023/05/29 05:37:57;;;;;;;7.60;3.60;;;;;;;;;;107643;286;39882;-40
2023/05/29 05:40:37;;;;;;;7.00;3.50;;;;;;;;;;107612;290;42931;-40
2023/05/29 05:43:13;;;;;;;7.50;3.60;;;;;;;;;;107692;286;42325;-40
2023/05/29 05:45:51;;;;;;;7.20;3.30;;;;;;;;;;107643;283;38764;-40
2023/05/29 05:48:28;;;;;;;6.90;3.00;;;;;;;;;;107579;286;46779;-42
2023/05/29 05:51:05;;;;;;;7.70;3.70;;;;;;;;;;107645;283;43377;-40
2023/05/29 05:53:41;;;;;;;6.70;3.40;;;;;;;;;;107597;286;42088;-40
2023/05/29 05:56:18;;;;;;;7.20;3.50;;;;;;;;;;107620;283;38806;-41
2023/05/29 05:58:53;;;;;;;6.70;3.20;;;;;;;;;;107645;283;47064;-40
2023/05/29 06:01:29;;;;;;;6.20;3.30;;;;;;;;;;107619;283;42902;-40
2023/05/29 06:04:06;;;;;;;6.60;3.20;;;;;;;;;;107628;286;42405;-40
2023/05/29 06:06:43;;;;;;;7.10;3.20;;;;;;;;;;107584;286;38778;-40
2023/05/29 06:09:19;;;;;;;7.80;3.10;;;;;;;;;;107573;283;39818;-40
2023/05/29 06:11:55;;;;;;;7.70;2.90;;;;;;;;;;107536;286;43097;-40
2023/05/29 06:14:29;;;;;;;5.90;2.70;;;;;;;;;;107573;283;41924;-39
2023/05/29 06:17:06;;;;;;;5.50;2.70;;;;;;;;;;107530;286;38861;-41
2023/05/29 06:19:43;;;;;;;6.60;2.50;;;;;;;;;;107815;283;39713;-40
2023/05/29 06:22:18;;;;;;;6.30;2.50;;;;;;;;;;107848;283;28698;-40
2023/05/29 06:24:53;;;;;;;5.90;2.50;;;;;;;;;;107882;283;28230;-39
2023/05/29 06:27:29;;;;;;;6.20;2.70;;;;;;;;;;107831;286;28498;-39
2023/05/29 06:30:06;;;;;;;6.90;2.50;;;;;;;;;;107837;286;28061;-38
2023/05/29 06:32:42;;;;;;;6.70;2.80;;;;;;;;;;107855;286;28761;-38
2023/05/29 06:35:18;;;;;;;5.50;2.60;;;;;;;;;;107883;286;27958;-40
2023/05/29 06:37:53;;;;;;;6.00;2.40;;;;;;;;;;107820;282;27659;-38
2023/05/29 06:40:30;;;;;;;5.00;2.50;;;;;;;;;;107799;283;28253;-38
2023/05/29 06:43:03;;;;;;;6.40;2.50;;;;;;;;;;107852;286;28892;-40
2023/05/29 06:45:40;;;;;;;5.70;2.30;;;;;;;;;;107860;286;27988;-39
2023/05/29 06:48:19;;;;;;;5.60;2.50;;;;;;;;;;107792;284;27442;-39
2023/05/29 06:50:58;;;;;;;5.40;2.60;;;;;;;;;;107865;286;28075;-39
2023/05/29 06:53:31;;;;;;;5.70;2.80;;;;;;;;;;107884;285;28554;-39
2023/05/29 06:56:07;;;;;;;5.30;2.40;;;;;;;;;;107805;286;28010;-39
2023/05/29 06:58:45;;;;;;;4.90;2.10;;;;;;;;;;107728;285;27660;-39
2023/05/29 07:01:23;;;;;;;5.40;2.40;;;;;;;;;;107859;283;28270;-39
2023/05/29 07:04:00;;;;;;;5.80;2.30;;;;;;;;;;107669;288;28711;-39
2023/05/29 07:06:38;;;;;;;4.60;2.40;;;;;;;;;;107494;288;175492;-39
2023/05/29 07:09:15;;;;;;;5.30;2.30;;;;;;;;;;107819;283;27183;-40
2023/05/29 07:11:53;;;;;;;5.00;2.00;;;;;;;;;;107857;286;28424;-41
2023/05/29 07:14:27;;;;;;;5.60;2.20;;;;;;;;;;107821;283;28615;-40
2023/05/29 07:17:02;;;;;;;5.50;2.40;;;;;;;;;;107834;283;28198;-39
2023/05/29 07:19:38;;;;;;;5.90;2.40;;;;;;;;;;107808;286;27516;-39
2023/05/29 07:22:15;;;;;;;4.50;2.00;;;;;;;;;;107831;286;28117;-38
2023/05/29 07:24:50;;;;;;;5.50;2.30;;;;;;;;;;107845;283;28857;-38
2023/05/29 07:27:27;;;;;;;5.80;2.40;;;;;;;;;;107881;282;28117;-38
2023/05/29 07:30:00;;;;;;;4.50;2.00;;;;;;;;;;107794;283;27417;-39
2023/05/29 07:32:34;;;;;;;5.10;2.00;;;;;;;;;;107820;283;28444;-39
2023/05/29 07:35:09;;;;;;;4.50;2.20;;;;;;;;;;107834;285;28591;-39
2023/05/29 07:37:44;;;;;;;4.60;2.20;;;;;;;;;;107896;282;27674;-39
2023/05/29 07:40:19;;;;;;;4.80;2.10;;;;;;;;;;107779;282;27176;-40
2023/05/29 07:42:54;;;;;;;5.40;2.10;;;;;;;;;;107839;283;28010;-40
2023/05/29 07:45:29;;;;;;;5.10;2.10;;;;;;;;;;107851;283;28616;-39
2023/05/29 07:48:03;;;;;;;5.50;2.20;;;;;;;;;;107825;286;27837;-40
2023/05/29 07:50:40;;;;;;;5.60;2.20;;;;;;;;;;107734;286;27433;-40
2023/05/29 07:53:17;;;;;;;6.60;2.30;;;;;;;;;;107837;286;28100;-38
2023/05/29 07:55:53;;;;;;;7.20;2.90;;;;;;;;;;107871;286;28615;-38
2023/05/29 07:58:28;;;;;;;6.30;2.70;;;;;;;;;;107819;283;27688;-38
2023/05/29 08:01:02;;;;;;;5.60;2.50;;;;;;;;;;107786;286;27190;-40
2023/05/29 08:03:36;;;;;;;6.10;2.40;;;;;;;;;;107881;286;28236;-40
2023/05/29 08:06:11;;;;;;;5.70;2.50;;;;;;;;;;107819;286;28625;-40
2023/05/29 08:08:49;;;;;;;6.60;2.80;;;;;;;;;;107864;286;27838;-38
2023/05/29 08:11:24;;;;;;;6.30;2.40;;;;;;;;;;107814;286;33090;-40
2023/05/29 08:13:58;;;;;;;7.50;2.80;;;;;;;;;;107707;286;175515;-39
2023/05/29 08:16:33;;;;;;;6.80;2.50;;;;;;;;;;107804;286;28972;-39
2023/05/29 08:19:09;;;;;;;6.10;2.50;;;;;;;;;;107841;286;29186;-38
2023/05/29 08:21:42;;;;;;;5.10;2.30;;;;;;;;;;107686;286;175466;-37
2023/05/29 08:24:18;;;;;;;5.70;2.50;;;;;;;;;;107897;286;28227;-38
2023/05/29 08:26:52;;;;;;;4.80;2.10;;;;;;;;;;107823;286;28645;-38
2023/05/29 08:29:27;;;;;;;5.20;2.20;;;;;;;;;;107762;286;175509;-40
2023/05/29 08:32:01;;;;;;;5.70;2.40;;;;;;;;;;107812;285;33144;-41
2023/05/29 08:34:36;;;;;;;6.10;2.40;;;;;;;;;;107669;286;28138;-40
2023/05/29 08:37:10;;;;;;;5.40;2.30;;;;;;;;;;107894;286;28886;-40
2023/05/29 08:39:44;;;;;;;5.60;2.30;;;;;;;;;;107772;283;181185;-40
2023/05/29 08:42:26;;;;;;;5.30;2.30;;;;;;;;;;107789;285;33228;-40
2023/05/29 08:45:04;;;;;;;4.90;2.10;;;;;;;;;;107900;283;28097;-40
2023/05/29 08:47:42;;;;;;;5.90;2.40;;;;;;;;;;107870;286;28896;-38
2023/05/29 08:50:24;;;;;;;5.50;2.20;;;;;;;;;;107667;286;175531;-39
2023/05/29 08:53:02;;;;;;;5.40;1.90;;;;;;;;;;107892;283;27279;-40
2023/05/29 08:55:40;;;;;;;5.60;2.10;;;;;;;;;;107770;283;175108;-38
2023/05/29 08:58:18;;;;;;;5.00;2.20;;;;;;;;;;107850;286;28514;-38
2023/05/29 09:00:55;;;;;;;4.80;2.10;;;;;;;;;;107854;286;27949;-40
2023/05/29 09:03:32;;;;;;;4.70;2.10;;;;;;;;;;107877;286;27469;-39
2023/05/29 09:06:11;;;;;;;4.60;2.20;;;;;;;;;;107838;286;28208;-40
2023/05/29 09:12:32;;;;;;;5.00;1.90;;;;;;;;;;107652;285;28072;-39
2023/05/29 09:15:25;;;;;;;4.50;1.80;;;;;;;;;;107890;283;27774;-40
2023/05/29 09:18:00;;;;;;;4.40;1.90;;;;;;;;;;107320;286;525277;-39
2023/05/29 09:20:34;;;;;;;4.50;1.80;;;;;;;;;;107714;284;28974;-38
2023/05/29 09:23:12;;;;;;;4.50;1.90;;;;;;;;;;107976;283;33825;-40
2023/05/29 09:25:47;;;;;;;4.20;1.90;;;;;;;;;;107883;286;27502;-41
2023/05/29 09:28:25;;;;;;;4.70;1.80;;;;;;;;;;107840;283;28095;-41
2023/05/29 09:31:00;;;;;;;5.30;2.00;;;;;;;;;;107802;286;28905;-38
2023/05/29 09:33:33;;;;;;;4.00;1.80;;;;;;;;;;107597;285;49349;-38
2023/05/29 09:36:22;;;;;;;4.80;1.90;;;;;;;;;;107536;279;38773;-38
2023/05/29 09:38:55;;;;;;;5.30;1.80;;;;;;;;;;107601;286;39672;-38
2023/05/29 09:41:48;;;;;;;4.30;1.70;;;;;;;;;;107522;283;42697;-39
2023/05/29 09:44:24;;;;;;;4.60;1.90;;;;;;;;;;107579;286;43391;-39
2023/05/29 09:47:01;;;;;;;4.70;1.90;;;;;;;;;;107567;286;39803;-39
2023/05/29 09:49:38;;;;;;;4.70;1.80;;;;;;;;;;107587;278;39771;-39
2023/05/29 09:52:15;;;;;;;4.30;1.70;;;;;;;;;;107484;283;44120;-39
2023/05/29 09:54:48;;;;;;;4.70;1.90;;;;;;;;;;106902;283;891286;-39
2023/05/29 09:57:23;;;;;;;4.30;1.80;;;;;;;;;;107563;279;39922;-40
2023/05/29 09:59:57;;;;;;;4.10;1.70;;;;;;;;;;107565;283;39752;-39
2023/05/29 10:02:30;;;;;;;4.50;1.80;;;;;;;;;;107546;286;42892;-40
2023/05/29 10:05:05;;;;;;;4.40;1.90;;;;;;;;;;107556;283;42204;-39
2023/05/29 10:07:40;;;;;;;4.50;1.90;;;;;;;;;;107571;283;39043;-39
2023/05/29 10:10:16;;;;;;;3.60;1.60;;;;;;;;;;107548;283;39441;-39
2023/05/29 10:12:52;;;;;;;5.00;1.60;;;;;;;;;;107520;286;42941;-38
2023/05/29 10:15:30;;;;;;;4.10;2.00;;;;;;;;;;107604;283;42169;-39
2023/05/29 10:18:09;;;;;;;4.10;1.50;;;;;;;;;;107609;285;38833;-39
2023/05/29 10:20:46;;;;;;;4.00;1.60;;;;;;;;;;107447;286;39745;-39
2023/05/29 10:23:22;;;;;;;4.80;1.70;;;;;;;;;;107540;283;42893;-39
2023/05/29 10:26:04;;;;;;;4.40;1.70;;;;;;;;;;107592;279;42254;-41
2023/05/29 10:28:43;;;;;;;4.20;1.70;;;;;;;;;;107514;284;38935;-40
2023/05/29 10:31:25;;;;;;;4.10;1.80;;;;;;;;;;107607;283;41665;-39
2023/05/29 10:34:14;;;;;;;4.20;1.70;;;;;;;;;;107586;286;44380;-40
2023/05/29 10:36:56;;;;;;;4.60;1.70;;;;;;;;;;107480;286;42158;-41
2023/05/29 10:39:29;;;;;;;4.40;1.60;;;;;;;;;;107569;283;38788;-40
2023/05/29 10:42:05;;;;;;;3.90;1.70;;;;;;;;;;107593;286;40883;-39
2023/05/29 10:44:42;;;;;;;3.70;1.50;;;;;;;;;;107425;283;43977;-39
2023/05/29 10:47:25;;;;;;;4.60;1.70;;;;;;;;;;107566;278;42151;-39
2023/05/29 10:50:03;;;;;;;4.40;1.50;;;;;;;;;;107575;286;39843;-39
2023/05/29 10:52:37;;;;;;;4.80;1.60;;;;;;;;;;107449;284;39944;-39
2023/05/29 10:55:14;;;;;;;3.70;1.50;;;;;;;;;;107546;285;51277;-38
2023/05/29 10:57:51;;;;;;;4.00;1.70;;;;;;;;;;107466;282;177170;-39
2023/05/29 11:00:26;;;;;;;4.00;1.60;;;;;;;;;;107541;286;38870;-40
2023/05/29 11:03:04;;;;;;;3.70;1.40;;;;;;;;;;107538;286;39839;-40
2023/05/29 11:06:02;;;;;;;3.80;1.60;;;;;;;;;;107605;283;42897;-38
2023/05/29 11:08:46;;;;;;;3.70;1.60;;;;;;;;;;107486;286;42144;-40
2023/05/29 11:11:35;;;;;;;4.20;1.40;;;;;;;;;;106932;286;893465;-41
2023/05/29 11:14:09;;;;;;;3.40;1.40;;;;;;;;;;107446;284;39850;-40
2023/05/29 11:16:45;;;;;;;3.90;1.50;;;;;;;;;;107551;283;42975;-39
2023/05/29 11:19:19;;;;;;;3.20;1.50;;;;;;;;;;107581;283;42259;-39
2023/05/29 11:22:11;;;;;;;4.40;1.50;;;;;;;;;;107545;286;38570;-38
2023/05/29 11:24:45;;;;;;;3.70;1.50;;;;;;;;;;107469;284;39773;-39
2023/05/29 11:27:21;;;;;;;3.50;1.60;;;;;;;;;;107539;286;42967;-39
2023/05/29 11:29:55;;;;;;;4.30;1.70;;;;;;;;;;107594;283;42100;-38
2023/05/29 11:32:32;;;;;;;3.40;1.50;;;;;;;;;;107563;283;38752;-39
2023/05/29 11:35:12;;;;;;;3.80;1.40;;;;;;;;;;107528;285;39703;-41
2023/05/29 11:37:48;;;;;;;4.00;1.60;;;;;;;;;;107589;283;43037;-42
2023/05/29 11:40:22;;;;;;;3.90;1.60;;;;;;;;;;107560;286;42192;-39
2023/05/29 11:42:55;;;;;;;3.90;1.60;;;;;;;;;;107595;283;38995;-40
2023/05/29 11:45:28;;;;;;;3.30;1.40;;;;;;;;;;107531;283;39693;-39
2023/05/29 11:48:03;;;;;;;3.60;1.40;;;;;;;;;;107546;283;44057;-39
2023/05/29 11:50:38;;;;;;;3.30;1.40;;;;;;;;;;107482;287;42108;-39
2023/05/29 11:53:13;;;;;;;4.40;1.40;;;;;;;;;;107543;286;38786;-39
2023/05/29 11:55:47;;;;;;;3.60;1.50;;;;;;;;;;107409;286;175545;-39
2023/05/29 11:58:20;;;;;;;3.30;1.40;;;;;;;;;;107546;283;42886;-39
2023/05/29 12:00:53;;;;;;;3.50;1.50;;;;;;;;;;107580;283;42144;-39
2023/05/29 12:03:27;;;;;;;2.90;1.30;;;;;;;;;;107585;282;39597;-39
2023/05/29 12:06:06;;;;;;;3.30;1.30;;;;;;;;;;107513;286;40890;-39
2023/05/29 12:08:41;;;;;;;3.70;1.30;;;;;;;;;;107467;285;44077;-39
2023/05/29 12:11:25;;;;;;;3.50;1.40;;;;;;;;;;107556;283;43179;-38
2023/05/29 12:14:04;;;;;;;3.70;1.40;;;;;;;;;;107583;283;39000;-39
2023/05/29 12:16:38;;;;;;;3.60;1.60;;;;;;;;;;107312;282;199647;-38
2023/05/29 12:19:12;;;;;;;3.50;1.30;;;;;;;;;;107540;286;42887;-37
2023/05/29 12:21:46;;;;;;;2.60;1.20;;;;;;;;;;107484;286;42134;-38
2023/05/29 12:24:21;;;;;;;3.20;1.30;;;;;;;;;;107574;286;38758;-39
2023/05/29 12:27:09;;;;;;;2.90;1.20;;;;;;;;;;107464;290;48096;-38
2023/05/29 12:29:43;;;;;;;2.90;1.40;;;;;;;;;;107621;282;42876;-40
2023/05/29 12:32:19;;;;;;;2.90;1.20;;;;;;;;;;107540;286;42205;-39
2023/05/29 12:34:54;;;;;;;3.50;1.30;;;;;;;;;;107595;283;38906;-39
2023/05/29 12:37:33;;;;;;;3.40;1.50;;;;;;;;;;107589;286;48304;-39
2023/05/29 12:40:19;;;;;;;3.70;1.20;;;;;;;;;;107622;286;43247;-39
2023/05/29 12:42:58;;;;;;;3.10;1.30;;;;;;;;;;107559;283;42127;-38
2023/05/29 12:45:34;;;;;;;3.40;1.40;;;;;;;;;;107521;283;38860;-38
2023/05/29 12:48:10;;;;;;;3.60;1.40;;;;;;;;;;107645;290;40857;-38
2023/05/29 12:50:44;;;;;;;3.30;1.50;;;;;;;;;;107527;286;43947;-39
2023/05/29 12:53:19;;;;;;;4.00;1.30;;;;;;;;;;107557;286;42229;-39
2023/05/29 12:55:56;;;;;;;3.00;1.20;;;;;;;;;;107580;286;38946;-39
2023/05/29 12:58:30;;;;;;;3.50;1.30;;;;;;;;;;107423;286;175471;-39
2023/05/29 13:01:03;;;;;;;2.70;1.20;;;;;;;;;;107578;283;42884;-39
2023/05/29 13:03:37;;;;;;;4.20;1.30;;;;;;;;;;107577;283;43303;-38
2023/05/29 13:06:12;;;;;;;3.30;1.30;;;;;;;;;;107517;286;39813;-39
2023/05/29 13:08:46;;;;;;;3.10;1.50;;;;;;;;;;107555;279;40009;-39
2023/05/29 13:11:21;;;;;;;3.60;1.40;;;;;;;;;;107498;283;42885;-39
2023/05/29 13:13:55;;;;;;;3.40;1.30;;;;;;;;;;107596;286;42240;-38
2023/05/29 13:16:30;;;;;;;3.80;1.50;;;;;;;;;;107486;282;39896;-41
2023/05/29 13:19:05;;;;;;;2.90;1.30;;;;;;;;;;107517;278;40825;-41
2023/05/29 13:21:47;;;;;;;3.30;1.40;;;;;;;;;;107576;283;42960;-40
2023/05/29 13:24:21;;;;;;;3.40;1.30;;;;;;;;;;107601;286;43262;-40
2023/05/29 13:27:00;;;;;;;3.40;1.40;;;;;;;;;;107529;283;38853;-41
2023/05/29 13:29:34;;;;;;;3.40;1.30;;;;;;;;;;107569;286;39715;-41
2023/05/29 13:32:10;;;;;;;3.00;1.30;;;;;;;;;;107591;285;44169;-39
2023/05/29 13:34:44;;;;;;;3.40;1.30;;;;;;;;;;107555;283;42138;-41
2023/05/29 13:37:17;;;;;;;3.60;1.40;;;;;;;;;;107531;286;39930;-40
2023/05/29 13:39:53;;;;;;;3.70;1.30;;;;;;;;;;107558;283;40839;-38
2023/05/29 13:42:27;;;;;;;4.00;1.40;;;;;;;;;;106932;286;889830;-39
2023/05/29 13:45:00;;;;;;;4.30;1.50;;;;;;;;;;106926;286;893206;-40
2023/05/29 13:47:34;;;;;;;3.80;1.30;;;;;;;;;;107557;286;39876;-39
2023/05/29 13:50:10;;;;;;;4.60;1.50;;;;;;;;;;107527;283;41134;-40
2023/05/29 13:52:43;;;;;;;4.40;1.80;;;;;;;;;;107616;283;42865;-40
2023/05/29 13:55:20;;;;;;;3.60;1.60;;;;;;;;;;107534;286;42228;-41
2023/05/29 13:57:57;;;;;;;5.90;1.70;;;;;;;;;;107503;283;38868;-40
2023/05/29 14:00:36;;;;;;;4.40;1.60;;;;;;;;;;107446;285;39409;-39
2023/05/29 14:03:09;;;;;;;4.90;1.60;;;;;;;;;;107560;286;42909;-40
2023/05/29 14:05:44;;;;;;;3.70;1.50;;;;;;;;;;107584;282;42242;-39
2023/05/29 14:08:20;;;;;;;4.80;1.70;;;;;;;;;;107499;283;38820;-41
2023/05/29 14:10:54;;;;;;;4.00;1.60;;;;;;;;;;107581;286;39679;-41
2023/05/29 14:13:30;;;;;;;3.80;1.50;;;;;;;;;;107578;283;42994;-40
2023/05/29 14:16:03;;;;;;;3.90;1.60;;;;;;;;;;107523;286;42147;-39
2023/05/29 14:18:37;;;;;;;3.70;1.40;;;;;;;;;;107449;286;38535;-39
2023/05/29 14:21:12;;;;;;;4.50;1.50;;;;;;;;;;107581;286;39939;-39
2023/05/29 14:23:48;;;;;;;3.20;1.50;;;;;;;;;;107586;286;42868;-40
2023/05/29 14:26:24;;;;;;;4.40;1.80;;;;;;;;;;107546;283;42179;-40
2023/05/29 14:28:57;;;;;;;4.20;1.70;;;;;;;;;;107522;286;38808;-38
2023/05/29 14:31:46;;;;;;;4.20;1.70;;;;;;;;;;107580;286;39695;-38
2023/05/29 14:34:19;;;;;;;4.10;1.60;;;;;;;;;;107549;282;42893;-39
2023/05/29 14:36:53;;;;;;;3.90;1.60;;;;;;;;;;107580;286;42154;-38
2023/05/29 14:39:26;;;;;;;3.70;1.60;;;;;;;;;;107542;283;38672;-40
2023/05/29 14:42:00;;;;;;;3.80;1.60;;;;;;;;;;107530;283;39688;-38
2023/05/29 14:44:35;;;;;;;3.70;1.50;;;;;;;;;;107458;284;43177;-38
2023/05/29 14:47:14;;;;;;;3.80;1.50;;;;;;;;;;107583;286;42341;-39
2023/05/29 14:49:47;;;;;;;3.90;1.70;;;;;;;;;;107536;283;38822;-40
2023/05/29 14:52:23;;;;;;;3.90;1.70;;;;;;;;;;107540;283;39854;-39
2023/05/29 14:54:57;;;;;;;4.10;1.80;;;;;;;;;;107561;286;42897;-39
2023/05/29 14:57:32;;;;;;;4.90;1.80;;;;;;;;;;107550;286;42129;-41
2023/05/29 15:00:08;;;;;;;4.50;1.70;;;;;;;;;;107498;279;38774;-39
2023/05/29 15:02:42;;;;;;;3.80;1.70;;;;;;;;;;107500;282;39750;-39
2023/05/29 15:05:16;;;;;;;4.60;1.70;;;;;;;;;;107570;283;42921;-40
2023/05/29 15:07:49;;;;;;;3.50;1.50;;;;;;;;;;107555;283;42154;-40
2023/05/29 15:10:24;;;;;;;3.80;1.70;;;;;;;;;;106839;283;892767;-38
2023/05/29 15:12:58;;;;;;;4.40;1.50;;;;;;;;;;107570;285;40823;-38
2023/05/29 15:15:31;;;;;;;4.10;1.60;;;;;;;;;;107563;286;43085;-41
2023/05/29 15:18:19;;;;;;;3.70;1.50;;;;;;;;;;107493;286;42195;-39
2023/05/29 15:20:53;;;;;;;3.20;1.40;;;;;;;;;;107568;285;46036;-41
2023/05/29 15:23:28;;;;;;;3.80;1.60;;;;;;;;;;107532;283;39769;-40
2023/05/29 15:26:02;;;;;;;4.10;1.80;;;;;;;;;;107442;279;43029;-40
2023/05/29 15:28:36;;;;;;;3.60;1.50;;;;;;;;;;107522;286;43215;-40
2023/05/29 15:31:09;;;;;;;3.70;1.50;;;;;;;;;;107560;283;46267;-40
2023/05/29 15:33:42;;;;;;;3.80;1.70;;;;;;;;;;107537;285;40723;-40
2023/05/29 15:36:15;;;;;;;4.30;1.90;;;;;;;;;;107509;285;42908;-37
2023/05/29 15:38:51;;;;;;;4.30;2.00;;;;;;;;;;107385;286;175122;-38
2023/05/29 15:41:28;;;;;;;4.30;1.80;;;;;;;;;;107407;286;177167;-39